sensor_id;sensor_type;location;lat;lon;timestamp;P1;durP1;ratioP1;P2;durP2;ratioP2
35699;SDS011;21818;51.078;12.108;2022-08-19T00:01:37;19.38;;;13.07;;
35699;SDS011;21818;51.078;12.108;2022-08-19T00:04:04;17.52;;;13.23;;
35699;SDS011;21818;51.078;12.108;2022-08-19T00:06:33;18.33;;;13.55;;
35699;SDS011;21818;51.078;12.108;2022-08-19T00:09:02;15.20;;;11.18;;
35699;SDS011;21818;51.078;12.108;2022-08-19T00:11:29;19.10;;;14.50;;
35699;SDS011;21818;51.078;12.108;2022-08-19T00:13:55;16.83;;;13.40;;
35699;SDS011;21818;51.078;12.108;2022-08-19T00:16:21;18.77;;;12.88;;
35699;SDS011;21818;51.078;12.108;2022-08-19T00:18:48;15.82;;;12.02;;
35699;SDS011;21818;51.078;12.108;2022-08-19T00:21:14;18.65;;;13.70;;
35699;SDS011;21818;51.078;12.108;2022-08-19T00:23:40;19.33;;;13.63;;
35699;SDS011;21818;51.078;12.108;2022-08-19T00:26:08;17.80;;;13.05;;
35699;SDS011;21818;51.078;12.108;2022-08-19T00:28:34;18.40;;;13.75;;
35699;SDS011;21818;51.078;12.108;2022-08-19T00:31:02;22.88;;;13.88;;
35699;SDS011;21818;51.078;12.108;2022-08-19T00:33:29;19.42;;;13.90;;
35699;SDS011;21818;51.078;12.108;2022-08-19T00:35:58;21.00;;;13.75;;
35699;SDS011;21818;51.078;12.108;2022-08-19T00:38:25;18.15;;;14.05;;
35699;SDS011;21818;51.078;12.108;2022-08-19T00:40:51;17.92;;;13.50;;
35699;SDS011;21818;51.078;12.108;2022-08-19T00:43:21;20.00;;;14.93;;
35699;SDS011;21818;51.078;12.108;2022-08-19T00:45:49;18.00;;;13.45;;
35699;SDS011;21818;51.078;12.108;2022-08-19T00:48:17;19.55;;;14.00;;
35699;SDS011;21818;51.078;12.108;2022-08-19T00:50:44;19.85;;;14.15;;
35699;SDS011;21818;51.078;12.108;2022-08-19T00:53:14;18.25;;;13.88;;
35699;SDS011;21818;51.078;12.108;2022-08-19T00:55:42;18.73;;;13.57;;
35699;SDS011;21818;51.078;12.108;2022-08-19T00:58:12;18.00;;;13.77;;
35699;SDS011;21818;51.078;12.108;2022-08-19T01:00:41;20.13;;;12.98;;
35699;SDS011;21818;51.078;12.108;2022-08-19T01:03:08;21.60;;;15.30;;
35699;SDS011;21818;51.078;12.108;2022-08-19T01:05:37;23.55;;;14.18;;
35699;SDS011;21818;51.078;12.108;2022-08-19T01:08:06;20.02;;;14.63;;
35699;SDS011;21818;51.078;12.108;2022-08-19T01:10:37;20.60;;;14.90;;
35699;SDS011;21818;51.078;12.108;2022-08-19T01:13:05;18.50;;;13.60;;
35699;SDS011;21818;51.078;12.108;2022-08-19T01:15:32;19.88;;;14.75;;
35699;SDS011;21818;51.078;12.108;2022-08-19T01:18:01;20.20;;;14.57;;
35699;SDS011;21818;51.078;12.108;2022-08-19T01:20:33;19.42;;;14.50;;
35699;SDS011;21818;51.078;12.108;2022-08-19T01:22:59;20.23;;;14.88;;
35699;SDS011;21818;51.078;12.108;2022-08-19T01:25:26;20.83;;;14.70;;
35699;SDS011;21818;51.078;12.108;2022-08-19T01:27:59;22.30;;;15.95;;
35699;SDS011;21818;51.078;12.108;2022-08-19T01:30:28;22.02;;;15.05;;
35699;SDS011;21818;51.078;12.108;2022-08-19T01:32:57;23.90;;;16.27;;
35699;SDS011;21818;51.078;12.108;2022-08-19T01:35:25;22.48;;;16.10;;
35699;SDS011;21818;51.078;12.108;2022-08-19T01:37:54;20.30;;;15.10;;
35699;SDS011;21818;51.078;12.108;2022-08-19T01:40:21;20.92;;;16.10;;
35699;SDS011;21818;51.078;12.108;2022-08-19T01:42:51;19.00;;;14.63;;
35699;SDS011;21818;51.078;12.108;2022-08-19T01:45:18;24.23;;;16.75;;
35699;SDS011;21818;51.078;12.108;2022-08-19T01:47:45;20.33;;;15.63;;
35699;SDS011;21818;51.078;12.108;2022-08-19T01:50:11;20.45;;;15.93;;
35699;SDS011;21818;51.078;12.108;2022-08-19T01:52:38;25.00;;;16.98;;
35699;SDS011;21818;51.078;12.108;2022-08-19T01:55:07;22.02;;;15.75;;
35699;SDS011;21818;51.078;12.108;2022-08-19T01:57:34;22.20;;;17.20;;
35699;SDS011;21818;51.078;12.108;2022-08-19T02:00:00;24.48;;;17.67;;
35699;SDS011;21818;51.078;12.108;2022-08-19T02:02:27;24.25;;;18.55;;
35699;SDS011;21818;51.078;12.108;2022-08-19T02:04:53;25.73;;;17.58;;
35699;SDS011;21818;51.078;12.108;2022-08-19T02:07:19;25.35;;;18.35;;
35699;SDS011;21818;51.078;12.108;2022-08-19T02:09:46;22.95;;;17.15;;
35699;SDS011;21818;51.078;12.108;2022-08-19T02:12:13;26.38;;;18.65;;
35699;SDS011;21818;51.078;12.108;2022-08-19T02:14:39;25.48;;;18.05;;
35699;SDS011;21818;51.078;12.108;2022-08-19T02:17:05;24.75;;;18.13;;
35699;SDS011;21818;51.078;12.108;2022-08-19T02:19:31;25.15;;;18.10;;
35699;SDS011;21818;51.078;12.108;2022-08-19T02:21:57;24.48;;;18.25;;
35699;SDS011;21818;51.078;12.108;2022-08-19T02:24:23;25.17;;;18.45;;
35699;SDS011;21818;51.078;12.108;2022-08-19T02:26:49;27.23;;;19.00;;
35699;SDS011;21818;51.078;12.108;2022-08-19T02:29:16;23.42;;;18.02;;
35699;SDS011;21818;51.078;12.108;2022-08-19T02:31:41;23.75;;;18.17;;
35699;SDS011;21818;51.078;12.108;2022-08-19T02:34:07;27.33;;;19.33;;
35699;SDS011;21818;51.078;12.108;2022-08-19T02:36:32;29.20;;;19.83;;
35699;SDS011;21818;51.078;12.108;2022-08-19T02:38:58;24.67;;;18.27;;
35699;SDS011;21818;51.078;12.108;2022-08-19T02:41:25;24.65;;;17.95;;
35699;SDS011;21818;51.078;12.108;2022-08-19T02:43:53;26.77;;;19.17;;
35699;SDS011;21818;51.078;12.108;2022-08-19T02:46:22;25.52;;;17.95;;
35699;SDS011;21818;51.078;12.108;2022-08-19T02:48:51;25.02;;;18.33;;
35699;SDS011;21818;51.078;12.108;2022-08-19T02:51:20;28.20;;;19.88;;
35699;SDS011;21818;51.078;12.108;2022-08-19T02:53:51;25.70;;;19.30;;
35699;SDS011;21818;51.078;12.108;2022-08-19T02:56:17;27.30;;;19.20;;
35699;SDS011;21818;51.078;12.108;2022-08-19T02:58:43;24.23;;;17.83;;
35699;SDS011;21818;51.078;12.108;2022-08-19T03:01:09;23.55;;;18.25;;
35699;SDS011;21818;51.078;12.108;2022-08-19T03:03:36;26.50;;;18.77;;
35699;SDS011;21818;51.078;12.108;2022-08-19T03:06:07;25.33;;;18.30;;
35699;SDS011;21818;51.078;12.108;2022-08-19T03:08:38;26.08;;;19.17;;
35699;SDS011;21818;51.078;12.108;2022-08-19T03:11:05;26.33;;;18.88;;
35699;SDS011;21818;51.078;12.108;2022-08-19T03:13:31;26.63;;;21.15;;
35699;SDS011;21818;51.078;12.108;2022-08-19T03:15:57;26.00;;;19.48;;
35699;SDS011;21818;51.078;12.108;2022-08-19T03:18:23;28.27;;;20.30;;
35699;SDS011;21818;51.078;12.108;2022-08-19T03:20:50;27.27;;;20.65;;
35699;SDS011;21818;51.078;12.108;2022-08-19T03:23:19;27.08;;;21.27;;
35699;SDS011;21818;51.078;12.108;2022-08-19T03:25:47;28.83;;;20.52;;
35699;SDS011;21818;51.078;12.108;2022-08-19T03:28:14;28.67;;;21.23;;
35699;SDS011;21818;51.078;12.108;2022-08-19T03:30:41;30.60;;;21.58;;
35699;SDS011;21818;51.078;12.108;2022-08-19T03:33:09;28.98;;;21.83;;
35699;SDS011;21818;51.078;12.108;2022-08-19T03:35:36;30.05;;;20.27;;
35699;SDS011;21818;51.078;12.108;2022-08-19T03:38:05;28.40;;;19.80;;
35699;SDS011;21818;51.078;12.108;2022-08-19T03:40:31;26.98;;;21.08;;
35699;SDS011;21818;51.078;12.108;2022-08-19T03:42:57;25.90;;;20.08;;
35699;SDS011;21818;51.078;12.108;2022-08-19T03:45:23;28.92;;;21.23;;
35699;SDS011;21818;51.078;12.108;2022-08-19T03:47:49;26.30;;;18.58;;
35699;SDS011;21818;51.078;12.108;2022-08-19T03:50:15;28.67;;;19.70;;
35699;SDS011;21818;51.078;12.108;2022-08-19T03:52:41;32.92;;;22.15;;
35699;SDS011;21818;51.078;12.108;2022-08-19T03:55:07;27.20;;;20.65;;
35699;SDS011;21818;51.078;12.108;2022-08-19T03:57:33;31.65;;;21.98;;
35699;SDS011;21818;51.078;12.108;2022-08-19T03:59:59;30.90;;;22.88;;
35699;SDS011;21818;51.078;12.108;2022-08-19T04:02:25;27.00;;;20.90;;
35699;SDS011;21818;51.078;12.108;2022-08-19T04:04:52;27.83;;;21.20;;
35699;SDS011;21818;51.078;12.108;2022-08-19T04:07:19;30.10;;;21.77;;
35699;SDS011;21818;51.078;12.108;2022-08-19T04:09:46;34.97;;;23.85;;
35699;SDS011;21818;51.078;12.108;2022-08-19T04:12:12;31.67;;;23.02;;
35699;SDS011;21818;51.078;12.108;2022-08-19T04:14:37;31.98;;;24.30;;
35699;SDS011;21818;51.078;12.108;2022-08-19T04:17:04;30.63;;;22.98;;
35699;SDS011;21818;51.078;12.108;2022-08-19T04:19:31;33.45;;;23.95;;
35699;SDS011;21818;51.078;12.108;2022-08-19T04:21:58;38.63;;;25.88;;
35699;SDS011;21818;51.078;12.108;2022-08-19T04:24:23;29.92;;;24.40;;
35699;SDS011;21818;51.078;12.108;2022-08-19T04:26:50;37.78;;;26.65;;
35699;SDS011;21818;51.078;12.108;2022-08-19T04:29:24;33.80;;;26.63;;
35699;SDS011;21818;51.078;12.108;2022-08-19T04:31:52;34.58;;;24.95;;
35699;SDS011;21818;51.078;12.108;2022-08-19T04:34:20;33.60;;;25.30;;
35699;SDS011;21818;51.078;12.108;2022-08-19T04:36:50;33.78;;;25.23;;
35699;SDS011;21818;51.078;12.108;2022-08-19T04:39:18;37.13;;;26.33;;
35699;SDS011;21818;51.078;12.108;2022-08-19T04:41:46;38.35;;;26.30;;
35699;SDS011;21818;51.078;12.108;2022-08-19T04:44:31;36.40;;;26.20;;
35699;SDS011;21818;51.078;12.108;2022-08-19T04:46:57;36.08;;;27.38;;
35699;SDS011;21818;51.078;12.108;2022-08-19T04:49:23;38.03;;;27.77;;
35699;SDS011;21818;51.078;12.108;2022-08-19T04:51:50;33.97;;;25.92;;
35699;SDS011;21818;51.078;12.108;2022-08-19T04:54:19;36.35;;;26.08;;
35699;SDS011;21818;51.078;12.108;2022-08-19T04:56:47;35.42;;;27.23;;
35699;SDS011;21818;51.078;12.108;2022-08-19T04:59:14;36.05;;;26.70;;
35699;SDS011;21818;51.078;12.108;2022-08-19T05:01:41;35.25;;;26.92;;
35699;SDS011;21818;51.078;12.108;2022-08-19T05:04:08;37.90;;;27.02;;
35699;SDS011;21818;51.078;12.108;2022-08-19T05:06:34;38.03;;;26.83;;
35699;SDS011;21818;51.078;12.108;2022-08-19T05:09:01;37.33;;;27.10;;
35699;SDS011;21818;51.078;12.108;2022-08-19T05:11:29;37.97;;;25.40;;
35699;SDS011;21818;51.078;12.108;2022-08-19T05:13:58;36.63;;;26.83;;
35699;SDS011;21818;51.078;12.108;2022-08-19T05:16:24;37.67;;;27.38;;
35699;SDS011;21818;51.078;12.108;2022-08-19T05:18:51;37.53;;;25.27;;
35699;SDS011;21818;51.078;12.108;2022-08-19T05:21:36;36.80;;;26.30;;
35699;SDS011;21818;51.078;12.108;2022-08-19T05:24:20;36.58;;;26.52;;
35699;SDS011;21818;51.078;12.108;2022-08-19T05:26:47;33.95;;;25.60;;
35699;SDS011;21818;51.078;12.108;2022-08-19T05:29:14;33.55;;;25.80;;
35699;SDS011;21818;51.078;12.108;2022-08-19T05:31:42;38.53;;;27.85;;
35699;SDS011;21818;51.078;12.108;2022-08-19T05:34:08;33.85;;;24.80;;
35699;SDS011;21818;51.078;12.108;2022-08-19T05:36:38;38.55;;;27.15;;
35699;SDS011;21818;51.078;12.108;2022-08-19T05:39:08;34.60;;;25.52;;
35699;SDS011;21818;51.078;12.108;2022-08-19T05:41:40;36.08;;;26.48;;
35699;SDS011;21818;51.078;12.108;2022-08-19T05:44:07;33.17;;;24.73;;
35699;SDS011;21818;51.078;12.108;2022-08-19T05:46:34;32.10;;;24.25;;
35699;SDS011;21818;51.078;12.108;2022-08-19T05:49:03;34.78;;;24.27;;
35699;SDS011;21818;51.078;12.108;2022-08-19T05:51:30;33.88;;;24.13;;
35699;SDS011;21818;51.078;12.108;2022-08-19T05:53:57;33.63;;;23.40;;
35699;SDS011;21818;51.078;12.108;2022-08-19T05:56:23;32.25;;;21.58;;
35699;SDS011;21818;51.078;12.108;2022-08-19T05:58:48;35.10;;;22.60;;
35699;SDS011;21818;51.078;12.108;2022-08-19T06:01:15;28.23;;;21.45;;
35699;SDS011;21818;51.078;12.108;2022-08-19T06:03:43;29.15;;;21.42;;
35699;SDS011;21818;51.078;12.108;2022-08-19T06:06:10;24.67;;;16.42;;
35699;SDS011;21818;51.078;12.108;2022-08-19T06:08:37;28.00;;;17.52;;
35699;SDS011;21818;51.078;12.108;2022-08-19T06:11:14;28.23;;;16.77;;
35699;SDS011;21818;51.078;12.108;2022-08-19T06:14:04;23.15;;;16.67;;
35699;SDS011;21818;51.078;12.108;2022-08-19T06:16:37;27.38;;;16.92;;
35699;SDS011;21818;51.078;12.108;2022-08-19T06:19:05;27.85;;;16.40;;
35699;SDS011;21818;51.078;12.108;2022-08-19T06:21:36;22.20;;;16.42;;
35699;SDS011;21818;51.078;12.108;2022-08-19T06:24:07;27.45;;;16.67;;
35699;SDS011;21818;51.078;12.108;2022-08-19T06:26:34;26.15;;;16.65;;
35699;SDS011;21818;51.078;12.108;2022-08-19T06:29:02;23.88;;;16.65;;
35699;SDS011;21818;51.078;12.108;2022-08-19T06:31:31;24.08;;;17.05;;
35699;SDS011;21818;51.078;12.108;2022-08-19T06:33:58;20.52;;;14.55;;
35699;SDS011;21818;51.078;12.108;2022-08-19T06:36:27;27.65;;;16.35;;
35699;SDS011;21818;51.078;12.108;2022-08-19T06:38:58;22.58;;;15.45;;
35699;SDS011;21818;51.078;12.108;2022-08-19T06:41:29;22.13;;;15.70;;
35699;SDS011;21818;51.078;12.108;2022-08-19T06:43:56;22.17;;;15.63;;
35699;SDS011;21818;51.078;12.108;2022-08-19T06:46:22;25.08;;;15.02;;
35699;SDS011;21818;51.078;12.108;2022-08-19T06:48:48;20.83;;;15.18;;
35699;SDS011;21818;51.078;12.108;2022-08-19T06:51:15;20.75;;;15.10;;
35699;SDS011;21818;51.078;12.108;2022-08-19T06:53:44;21.45;;;15.57;;
35699;SDS011;21818;51.078;12.108;2022-08-19T06:56:14;20.47;;;15.40;;
35699;SDS011;21818;51.078;12.108;2022-08-19T06:58:40;23.90;;;15.38;;
35699;SDS011;21818;51.078;12.108;2022-08-19T07:01:06;19.70;;;15.50;;
35699;SDS011;21818;51.078;12.108;2022-08-19T07:03:33;18.05;;;14.52;;
35699;SDS011;21818;51.078;12.108;2022-08-19T07:06:06;20.50;;;14.02;;
35699;SDS011;21818;51.078;12.108;2022-08-19T07:08:37;19.70;;;13.65;;
35699;SDS011;21818;51.078;12.108;2022-08-19T07:11:07;17.80;;;13.87;;
35699;SDS011;21818;51.078;12.108;2022-08-19T07:13:34;19.70;;;14.05;;
35699;SDS011;21818;51.078;12.108;2022-08-19T07:16:03;18.70;;;13.70;;
35699;SDS011;21818;51.078;12.108;2022-08-19T07:18:32;19.95;;;14.20;;
35699;SDS011;21818;51.078;12.108;2022-08-19T07:21:02;22.83;;;14.55;;
35699;SDS011;21818;51.078;12.108;2022-08-19T07:23:29;19.20;;;12.88;;
35699;SDS011;21818;51.078;12.108;2022-08-19T07:25:55;18.98;;;13.00;;
35699;SDS011;21818;51.078;12.108;2022-08-19T07:28:22;17.80;;;12.50;;
35699;SDS011;21818;51.078;12.108;2022-08-19T07:30:47;18.60;;;13.60;;
35699;SDS011;21818;51.078;12.108;2022-08-19T07:33:14;16.95;;;12.20;;
35699;SDS011;21818;51.078;12.108;2022-08-19T07:35:43;17.23;;;12.35;;
35699;SDS011;21818;51.078;12.108;2022-08-19T07:38:08;19.65;;;12.88;;
35699;SDS011;21818;51.078;12.108;2022-08-19T07:40:35;18.02;;;12.55;;
35699;SDS011;21818;51.078;12.108;2022-08-19T07:43:00;14.88;;;11.73;;
35699;SDS011;21818;51.078;12.108;2022-08-19T07:45:26;17.55;;;11.98;;
35699;SDS011;21818;51.078;12.108;2022-08-19T07:47:53;18.35;;;12.77;;
35699;SDS011;21818;51.078;12.108;2022-08-19T07:50:19;13.93;;;11.82;;
35699;SDS011;21818;51.078;12.108;2022-08-19T07:52:45;16.50;;;11.43;;
35699;SDS011;21818;51.078;12.108;2022-08-19T07:55:11;15.48;;;10.82;;
35699;SDS011;21818;51.078;12.108;2022-08-19T07:57:37;21.42;;;12.85;;
35699;SDS011;21818;51.078;12.108;2022-08-19T08:00:04;17.98;;;12.70;;
35699;SDS011;21818;51.078;12.108;2022-08-19T08:02:31;16.77;;;11.93;;
35699;SDS011;21818;51.078;12.108;2022-08-19T08:04:56;18.73;;;11.45;;
35699;SDS011;21818;51.078;12.108;2022-08-19T08:07:40;17.63;;;11.30;;
35699;SDS011;21818;51.078;12.108;2022-08-19T08:10:25;16.00;;;11.25;;
35699;SDS011;21818;51.078;12.108;2022-08-19T08:12:50;18.25;;;12.60;;
35699;SDS011;21818;51.078;12.108;2022-08-19T08:15:16;16.95;;;11.82;;
35699;SDS011;21818;51.078;12.108;2022-08-19T08:17:43;17.55;;;12.10;;
35699;SDS011;21818;51.078;12.108;2022-08-19T08:20:09;15.90;;;11.75;;
35699;SDS011;21818;51.078;12.108;2022-08-19T08:22:35;16.42;;;12.32;;
35699;SDS011;21818;51.078;12.108;2022-08-19T08:25:21;15.98;;;11.63;;
35699;SDS011;21818;51.078;12.108;2022-08-19T08:27:48;14.27;;;10.98;;
35699;SDS011;21818;51.078;12.108;2022-08-19T08:30:21;15.65;;;11.48;;
35699;SDS011;21818;51.078;12.108;2022-08-19T08:32:48;18.23;;;11.50;;
35699;SDS011;21818;51.078;12.108;2022-08-19T08:35:15;19.92;;;11.32;;
35699;SDS011;21818;51.078;12.108;2022-08-19T08:37:43;15.07;;;11.25;;
35699;SDS011;21818;51.078;12.108;2022-08-19T08:43:18;15.57;;;11.50;;
35699;SDS011;21818;51.078;12.108;2022-08-19T08:46:04;16.33;;;10.43;;
35699;SDS011;21818;51.078;12.108;2022-08-19T08:48:36;13.88;;;10.75;;
35699;SDS011;21818;51.078;12.108;2022-08-19T08:51:09;15.13;;;10.02;;
35699;SDS011;21818;51.078;12.108;2022-08-19T08:53:39;16.17;;;11.13;;
35699;SDS011;21818;51.078;12.108;2022-08-19T08:56:06;20.38;;;10.20;;
35699;SDS011;21818;51.078;12.108;2022-08-19T08:58:39;13.90;;;10.35;;
35699;SDS011;21818;51.078;12.108;2022-08-19T09:01:13;16.25;;;10.27;;
35699;SDS011;21818;51.078;12.108;2022-08-19T09:03:40;16.60;;;11.02;;
35699;SDS011;21818;51.078;12.108;2022-08-19T09:06:18;14.32;;;10.90;;
35699;SDS011;21818;51.078;12.108;2022-08-19T09:14:56;17.13;;;9.63;;
35699;SDS011;21818;51.078;12.108;2022-08-19T09:22:42;15.95;;;9.80;;
35699;SDS011;21818;51.078;12.108;2022-08-19T09:25:09;14.82;;;9.00;;
35699;SDS011;21818;51.078;12.108;2022-08-19T09:27:38;12.88;;;9.07;;
35699;SDS011;21818;51.078;12.108;2022-08-19T09:30:05;13.73;;;9.10;;
35699;SDS011;21818;51.078;12.108;2022-08-19T09:32:32;11.38;;;8.65;;
35699;SDS011;21818;51.078;12.108;2022-08-19T09:34:58;11.30;;;8.93;;
35699;SDS011;21818;51.078;12.108;2022-08-19T09:37:25;11.65;;;8.88;;
35699;SDS011;21818;51.078;12.108;2022-08-19T09:39:51;12.43;;;8.52;;
35699;SDS011;21818;51.078;12.108;2022-08-19T09:42:17;12.90;;;8.93;;
35699;SDS011;21818;51.078;12.108;2022-08-19T09:44:43;13.93;;;9.18;;
35699;SDS011;21818;51.078;12.108;2022-08-19T09:47:09;11.55;;;8.27;;
35699;SDS011;21818;51.078;12.108;2022-08-19T09:49:36;11.38;;;8.00;;
35699;SDS011;21818;51.078;12.108;2022-08-19T09:52:03;11.43;;;8.05;;
35699;SDS011;21818;51.078;12.108;2022-08-19T09:54:29;11.02;;;7.57;;
35699;SDS011;21818;51.078;12.108;2022-08-19T09:56:55;10.55;;;7.75;;
35699;SDS011;21818;51.078;12.108;2022-08-19T09:59:23;9.52;;;7.15;;
35699;SDS011;21818;51.078;12.108;2022-08-19T10:01:49;10.65;;;7.32;;
35699;SDS011;21818;51.078;12.108;2022-08-19T10:04:16;9.10;;;6.55;;
35699;SDS011;21818;51.078;12.108;2022-08-19T10:06:41;9.55;;;7.32;;
35699;SDS011;21818;51.078;12.108;2022-08-19T10:09:07;11.02;;;7.25;;
35699;SDS011;21818;51.078;12.108;2022-08-19T10:11:34;8.75;;;6.75;;
35699;SDS011;21818;51.078;12.108;2022-08-19T10:14:01;9.13;;;6.97;;
35699;SDS011;21818;51.078;12.108;2022-08-19T10:16:30;9.70;;;7.63;;
35699;SDS011;21818;51.078;12.108;2022-08-19T10:18:57;8.77;;;6.82;;
35699;SDS011;21818;51.078;12.108;2022-08-19T10:21:27;8.82;;;7.10;;
35699;SDS011;21818;51.078;12.108;2022-08-19T10:23:56;11.18;;;7.90;;
35699;SDS011;21818;51.078;12.108;2022-08-19T10:26:26;10.40;;;8.23;;
35699;SDS011;21818;51.078;12.108;2022-08-19T10:28:53;10.45;;;7.45;;
35699;SDS011;21818;51.078;12.108;2022-08-19T10:31:21;9.25;;;7.22;;
35699;SDS011;21818;51.078;12.108;2022-08-19T10:33:49;9.45;;;7.00;;
35699;SDS011;21818;51.078;12.108;2022-08-19T10:36:19;10.43;;;7.53;;
35699;SDS011;21818;51.078;12.108;2022-08-19T10:38:48;12.45;;;8.50;;
35699;SDS011;21818;51.078;12.108;2022-08-19T10:41:16;8.93;;;7.28;;
35699;SDS011;21818;51.078;12.108;2022-08-19T10:43:43;10.13;;;7.07;;
35699;SDS011;21818;51.078;12.108;2022-08-19T10:46:11;9.35;;;7.53;;
35699;SDS011;21818;51.078;12.108;2022-08-19T10:48:39;9.27;;;7.70;;
35699;SDS011;21818;51.078;12.108;2022-08-19T10:51:06;11.57;;;7.82;;
35699;SDS011;21818;51.078;12.108;2022-08-19T10:53:50;9.05;;;7.55;;
35699;SDS011;21818;51.078;12.108;2022-08-19T10:56:16;10.38;;;7.35;;
35699;SDS011;21818;51.078;12.108;2022-08-19T10:59:02;9.98;;;7.82;;
35699;SDS011;21818;51.078;12.108;2022-08-19T11:01:29;9.27;;;7.13;;
35699;SDS011;21818;51.078;12.108;2022-08-19T11:03:57;8.75;;;7.13;;
35699;SDS011;21818;51.078;12.108;2022-08-19T11:06:24;11.02;;;7.82;;
35699;SDS011;21818;51.078;12.108;2022-08-19T11:08:53;9.60;;;7.57;;
35699;SDS011;21818;51.078;12.108;2022-08-19T11:11:19;11.10;;;7.13;;
35699;SDS011;21818;51.078;12.108;2022-08-19T11:13:46;9.20;;;6.95;;
35699;SDS011;21818;51.078;12.108;2022-08-19T11:16:13;8.88;;;7.07;;
35699;SDS011;21818;51.078;12.108;2022-08-19T11:18:42;9.50;;;6.75;;
35699;SDS011;21818;51.078;12.108;2022-08-19T11:21:21;8.95;;;6.20;;
35699;SDS011;21818;51.078;12.108;2022-08-19T11:24:03;7.53;;;6.72;;
35699;SDS011;21818;51.078;12.108;2022-08-19T11:26:40;7.68;;;6.10;;
35699;SDS011;21818;51.078;12.108;2022-08-19T11:29:08;8.50;;;5.90;;
35699;SDS011;21818;51.078;12.108;2022-08-19T11:31:39;6.78;;;5.05;;
35699;SDS011;21818;51.078;12.108;2022-08-19T11:34:08;6.82;;;5.57;;
35699;SDS011;21818;51.078;12.108;2022-08-19T11:36:37;8.10;;;5.75;;
35699;SDS011;21818;51.078;12.108;2022-08-19T11:39:07;6.25;;;4.82;;
35699;SDS011;21818;51.078;12.108;2022-08-19T11:41:34;7.13;;;5.28;;
35699;SDS011;21818;51.078;12.108;2022-08-19T11:44:00;6.95;;;5.35;;
35699;SDS011;21818;51.078;12.108;2022-08-19T11:46:28;7.60;;;5.10;;
35699;SDS011;21818;51.078;12.108;2022-08-19T11:48:54;7.03;;;4.97;;
35699;SDS011;21818;51.078;12.108;2022-08-19T11:51:25;5.90;;;5.05;;
35699;SDS011;21818;51.078;12.108;2022-08-19T11:53:53;6.53;;;4.88;;
35699;SDS011;21818;51.078;12.108;2022-08-19T11:56:20;6.22;;;5.10;;
35699;SDS011;21818;51.078;12.108;2022-08-19T11:58:47;7.10;;;4.95;;
35699;SDS011;21818;51.078;12.108;2022-08-19T12:01:13;4.88;;;4.38;;
35699;SDS011;21818;51.078;12.108;2022-08-19T12:03:43;7.00;;;5.20;;
35699;SDS011;21818;51.078;12.108;2022-08-19T12:06:12;5.97;;;5.18;;
35699;SDS011;21818;51.078;12.108;2022-08-19T12:08:40;6.65;;;4.85;;
35699;SDS011;21818;51.078;12.108;2022-08-19T12:11:07;8.93;;;5.68;;
35699;SDS011;21818;51.078;12.108;2022-08-19T12:13:33;5.55;;;4.82;;
35699;SDS011;21818;51.078;12.108;2022-08-19T12:15:59;5.30;;;4.55;;
35699;SDS011;21818;51.078;12.108;2022-08-19T12:18:26;5.38;;;3.97;;
35699;SDS011;21818;51.078;12.108;2022-08-19T12:20:52;6.38;;;4.45;;
35699;SDS011;21818;51.078;12.108;2022-08-19T12:23:21;5.18;;;3.50;;
35699;SDS011;21818;51.078;12.108;2022-08-19T12:25:48;5.55;;;3.90;;
35699;SDS011;21818;51.078;12.108;2022-08-19T12:28:20;4.57;;;3.75;;
35699;SDS011;21818;51.078;12.108;2022-08-19T12:30:48;4.18;;;3.05;;
35699;SDS011;21818;51.078;12.108;2022-08-19T12:33:16;7.28;;;3.88;;
35699;SDS011;21818;51.078;12.108;2022-08-19T12:35:43;4.88;;;3.65;;
35699;SDS011;21818;51.078;12.108;2022-08-19T12:38:12;4.47;;;3.95;;
35699;SDS011;21818;51.078;12.108;2022-08-19T12:40:39;5.13;;;3.63;;
35699;SDS011;21818;51.078;12.108;2022-08-19T12:43:05;3.88;;;3.03;;
35699;SDS011;21818;51.078;12.108;2022-08-19T12:45:32;7.40;;;3.30;;
35699;SDS011;21818;51.078;12.108;2022-08-19T12:47:58;4.07;;;3.40;;
35699;SDS011;21818;51.078;12.108;2022-08-19T12:50:24;4.00;;;3.10;;
35699;SDS011;21818;51.078;12.108;2022-08-19T12:52:49;3.70;;;3.28;;
35699;SDS011;21818;51.078;12.108;2022-08-19T12:55:16;4.35;;;2.92;;
35699;SDS011;21818;51.078;12.108;2022-08-19T12:57:43;3.65;;;2.55;;
35699;SDS011;21818;51.078;12.108;2022-08-19T13:00:11;4.50;;;2.78;;
35699;SDS011;21818;51.078;12.108;2022-08-19T13:02:39;4.20;;;2.70;;
35699;SDS011;21818;51.078;12.108;2022-08-19T13:05:10;4.25;;;2.90;;
35699;SDS011;21818;51.078;12.108;2022-08-19T13:07:38;4.95;;;3.13;;
35699;SDS011;21818;51.078;12.108;2022-08-19T13:10:08;3.42;;;2.60;;
35699;SDS011;21818;51.078;12.108;2022-08-19T13:12:36;3.90;;;2.53;;
35699;SDS011;21818;51.078;12.108;2022-08-19T13:15:03;3.33;;;2.95;;
35699;SDS011;21818;51.078;12.108;2022-08-19T13:17:29;3.15;;;2.38;;
35699;SDS011;21818;51.078;12.108;2022-08-19T13:19:54;3.78;;;2.70;;
35699;SDS011;21818;51.078;12.108;2022-08-19T13:22:20;3.83;;;2.88;;
35699;SDS011;21818;51.078;12.108;2022-08-19T13:24:45;4.05;;;3.33;;
35699;SDS011;21818;51.078;12.108;2022-08-19T13:27:11;3.75;;;2.58;;
35699;SDS011;21818;51.078;12.108;2022-08-19T13:29:37;4.68;;;2.65;;
35699;SDS011;21818;51.078;12.108;2022-08-19T13:32:23;2.83;;;2.25;;
35699;SDS011;21818;51.078;12.108;2022-08-19T13:35:07;3.03;;;2.50;;
35699;SDS011;21818;51.078;12.108;2022-08-19T13:37:33;5.70;;;3.00;;
35699;SDS011;21818;51.078;12.108;2022-08-19T13:40:12;4.03;;;3.00;;
35699;SDS011;21818;51.078;12.108;2022-08-19T13:42:47;3.78;;;2.42;;
35699;SDS011;21818;51.078;12.108;2022-08-19T13:47:44;3.90;;;2.60;;
35699;SDS011;21818;51.078;12.108;2022-08-19T13:50:15;2.92;;;2.58;;
35699;SDS011;21818;51.078;12.108;2022-08-19T13:52:42;4.45;;;3.50;;
35699;SDS011;21818;51.078;12.108;2022-08-19T13:55:09;4.47;;;3.05;;
35699;SDS011;21818;51.078;12.108;2022-08-19T13:57:36;3.50;;;2.92;;
35699;SDS011;21818;51.078;12.108;2022-08-19T14:00:07;5.60;;;2.88;;
35699;SDS011;21818;51.078;12.108;2022-08-19T14:02:38;4.32;;;3.03;;
35699;SDS011;21818;51.078;12.108;2022-08-19T14:05:05;4.20;;;3.03;;
35699;SDS011;21818;51.078;12.108;2022-08-19T14:07:31;4.60;;;3.28;;
35699;SDS011;21818;51.078;12.108;2022-08-19T14:09:57;4.90;;;3.20;;
35699;SDS011;21818;51.078;12.108;2022-08-19T14:12:22;3.45;;;3.13;;
35699;SDS011;21818;51.078;12.108;2022-08-19T14:14:48;3.75;;;2.85;;
35699;SDS011;21818;51.078;12.108;2022-08-19T14:17:14;4.18;;;3.13;;
35699;SDS011;21818;51.078;12.108;2022-08-19T14:19:40;3.75;;;3.22;;
35699;SDS011;21818;51.078;12.108;2022-08-19T14:22:06;3.47;;;3.17;;
35699;SDS011;21818;51.078;12.108;2022-08-19T14:24:32;4.80;;;3.25;;
35699;SDS011;21818;51.078;12.108;2022-08-19T14:26:58;3.65;;;3.22;;
35699;SDS011;21818;51.078;12.108;2022-08-19T14:29:24;3.72;;;3.00;;
35699;SDS011;21818;51.078;12.108;2022-08-19T14:31:50;4.10;;;2.92;;
35699;SDS011;21818;51.078;12.108;2022-08-19T14:34:16;4.15;;;3.13;;
35699;SDS011;21818;51.078;12.108;2022-08-19T14:36:41;4.00;;;3.17;;
35699;SDS011;21818;51.078;12.108;2022-08-19T14:39:07;4.25;;;3.72;;